Hayden, Indiana
Current Conditions -  °F | °C
As of 9:45 PM on Tuesday 25 Nov 2014 (Local Time) from KBAK Reporting Station
Scattered Clouds Scattered Clouds  
Wind Chill: 28°   Ceiling: Unl
Heat Index: 28°   Visibility: 10mi
Dew Point: 27°   Wind: 3mph
Humidity: 93%   Direction: 10°N
Pressure: 30.21"   Gusts: NA
Location:  38.98°N, 85.74°W
Report Text: KBAK 260245Z 01003KT 10SM SCT028 M02/M03 A3021 RMK LAST
Loading
Personal Weather Stations






























Interactive Weather Map New forecast layout! Learn more

10-Day Weather Forecast

Advertisements
Track Severe Weather on mobile